Time;durP1;ratioP1;P1;durP2;ratioP2;P2;SDS_P1;SDS_P2;PMS_P1;PMS_P2;Temp;Humidity;BMP_temperature;BMP_pressure;BME280_temperature;BME280_humidity;BME280_pressure;Samples;Min_cycle;Max_cycle;Signal;HPM_P1;HPM_P2
2023/08/21 00:04:05;;;;;;;18.80;17.10;;;;;;;21.18;80.45;99294.92;226777;1269;22919;-74
2023/08/21 00:09:07;;;;;;;19.70;17.80;;;;;;;21.11;80.84;99291.00;226936;1270;22530;-74
2023/08/21 00:14:08;;;;;;;19.50;17.50;;;;;;;21.06;80.89;99292.53;227002;1256;22571;-75
2023/08/21 00:19:10;;;;;;;19.30;17.40;;;;;;;21.02;81.06;99281.48;226837;1269;23476;-74
2023/08/21 00:24:12;;;;;;;19.20;17.20;;;;;;;20.95;81.17;99275.52;226818;1267;22638;-74
2023/08/21 00:29:14;;;;;;;19.50;17.50;;;;;;;20.88;81.31;99274.05;226942;1272;22551;-73
2023/08/21 00:34:16;;;;;;;20.50;18.40;;;;;;;20.81;81.38;99270.16;226822;1273;23007;-74
2023/08/21 00:39:18;;;;;;;21.00;18.80;;;;;;;20.75;81.66;99275.50;226819;1267;22555;-74
2023/08/21 00:44:19;;;;;;;19.50;17.60;;;;;;;20.71;81.63;99277.85;226800;1272;22594;-74
2023/08/21 00:49:21;;;;;;;18.60;16.80;;;;;;;20.69;81.61;99283.23;226765;1272;22558;-74
2023/08/21 00:54:23;;;;;;;18.80;17.10;;;;;;;20.63;81.68;99289.02;226754;1269;22556;-74
2023/08/21 00:59:27;;;;;;;19.40;17.50;;;;;;;20.55;81.92;99293.92;226767;1272;25252;-74
2023/08/21 01:04:29;;;;;;;20.20;17.90;;;;;;;20.48;82.00;99294.77;226786;1272;25262;-75
2023/08/21 01:09:41;;;;;;;21.10;19.10;;;;;;;20.42;82.20;99287.60;226853;1270;25327;-74
2023/08/21 01:14:56;;;;;;;21.00;18.90;;;;;;;20.36;82.09;99285.70;226852;1272;22520;-75
2023/08/21 01:19:59;;;;;;;20.90;18.80;;;;;;;20.33;82.36;99281.34;226839;1272;22690;-74
2023/08/21 01:25:02;;;;;;;20.70;18.60;;;;;;;20.31;82.31;99280.70;226861;1271;22537;-74
2023/08/21 01:30:09;;;;;;;20.10;18.10;;;;;;;20.29;82.43;99281.11;226798;1269;22534;-74
2023/08/21 01:35:12;;;;;;;20.10;18.10;;;;;;;20.29;82.52;99280.58;226782;1269;124036;-74
2023/08/21 01:40:21;;;;;;;20.10;18.20;;;;;;;20.29;82.50;99280.09;226950;1265;22544;-75
2023/08/21 01:45:23;;;;;;;20.90;19.10;;;;;;;20.29;82.56;99268.07;226837;1272;22509;-75
2023/08/21 01:50:25;;;;;;;22.10;19.70;;;;;;;20.29;82.64;99269.23;226766;1269;22572;-74
2023/08/21 01:55:29;;;;;;;21.50;19.40;;;;;;;20.28;82.82;99275.93;226911;1272;22568;-74
2023/08/21 02:00:30;;;;;;;20.60;18.50;;;;;;;20.27;82.88;99275.95;226821;1272;22531;-74
2023/08/21 02:05:38;;;;;;;20.10;18.20;;;;;;;20.24;83.01;99274.44;226870;1269;22606;-74
2023/08/21 02:10:52;;;;;;;22.90;20.80;;;;;;;20.20;83.02;99266.47;226792;1266;25210;-75
2023/08/21 02:15:54;;;;;;;24.20;21.90;;;;;;;20.13;83.12;99265.02;226789;1269;22530;-75
2023/08/21 02:20:56;;;;;;;24.30;21.90;;;;;;;20.06;83.10;99257.62;226744;1273;22613;-74
2023/08/21 02:25:58;;;;;;;24.50;22.10;;;;;;;20.01;83.29;99252.18;226777;1269;22541;-74
2023/08/21 02:31:00;;;;;;;22.90;20.60;;;;;;;19.97;83.47;99251.84;226890;1273;23055;-74
2023/08/21 02:36:03;;;;;;;23.00;20.80;;;;;;;19.91;83.65;99253.77;226753;1267;25226;-74
2023/08/21 02:41:05;;;;;;;23.50;21.30;;;;;;;19.85;83.91;99259.89;226756;1270;22550;-74
2023/08/21 02:46:07;;;;;;;24.00;21.50;;;;;;;19.81;83.75;99259.02;226790;1263;22527;-74
2023/08/21 02:51:09;;;;;;;24.60;22.30;;;;;;;19.77;83.88;99250.46;226738;1272;25396;-74
2023/08/21 02:56:11;;;;;;;24.00;21.40;;;;;;;19.75;84.12;99256.30;226809;1270;23246;-74
2023/08/21 03:01:12;;;;;;;22.00;19.90;;;;;;;19.71;84.10;99258.92;226716;1273;22524;-74
2023/08/21 03:06:16;;;;;;;23.50;21.20;;;;;;;19.67;84.22;99259.52;226795;1273;22606;-74
2023/08/21 03:11:18;;;;;;;22.80;20.60;;;;;;;19.64;84.46;99261.83;226732;1270;25349;-74
2023/08/21 03:16:20;;;;;;;24.30;21.80;;;;;;;19.61;84.61;99268.77;226754;1270;22546;-74
2023/08/21 03:21:23;;;;;;;25.60;22.90;;;;;;;19.57;84.80;99261.69;226814;1272;22526;-74
2023/08/21 03:26:26;;;;;;;24.50;21.90;;;;;;;19.53;84.78;99264.44;226903;1272;22551;-76
2023/08/21 03:31:30;;;;;;;25.50;22.90;;;;;;;19.49;84.94;99265.12;226750;1271;22534;-73
2023/08/21 03:36:32;;;;;;;24.80;22.60;;;;;;;19.44;85.00;99261.72;226867;1272;22546;-74
2023/08/21 03:41:36;;;;;;;25.70;23.00;;;;;;;19.42;85.21;99268.05;226803;1272;22553;-74
2023/08/21 03:46:38;;;;;;;25.30;23.00;;;;;;;19.41;85.53;99265.05;226700;1272;22537;-74
2023/08/21 03:51:40;;;;;;;27.30;24.60;;;;;;;19.42;85.58;99264.73;226859;1269;25386;-73
2023/08/21 03:56:44;;;;;;;28.90;24.50;;;;;;;19.43;85.67;99260.57;226775;1272;22581;-75
2023/08/21 04:01:46;;;;;;;26.80;24.20;;;;;;;19.44;85.61;99261.67;226779;1272;24880;-73
2023/08/21 04:06:48;;;;;;;25.70;23.10;;;;;;;19.46;85.74;99261.39;226729;1272;22555;-74
2023/08/21 04:11:50;;;;;;;26.40;23.40;;;;;;;19.51;85.83;99264.84;226949;1272;22534;-74
2023/08/21 04:16:52;;;;;;;25.20;22.30;;;;;;;19.57;85.76;99250.19;226762;1272;25318;-74
2023/08/21 04:21:54;;;;;;;25.50;22.00;;;;;;;19.64;85.85;99240.42;226922;1272;22530;-74
2023/08/21 04:26:56;;;;;;;26.70;23.60;;;;;;;19.73;85.88;99246.25;226816;1270;22558;-74
2023/08/21 04:31:58;;;;;;;27.40;23.80;;;;;;;19.83;85.73;99243.79;226810;1271;22549;-75
2023/08/21 04:37:00;;;;;;;25.70;22.90;;;;;;;19.94;85.48;99242.27;226860;1270;24412;-74
2023/08/21 04:42:03;;;;;;;25.50;23.00;;;;;;;20.02;85.54;99238.77;226775;1272;22594;-74
2023/08/21 04:47:25;;;;;;;25.60;23.10;;;;;;;20.12;85.37;99241.21;226778;1272;22561;-74
2023/08/21 04:52:30;;;;;;;25.90;23.20;;;;;;;20.25;85.27;99251.98;226878;1272;23579;-74
2023/08/21 04:57:33;;;;;;;27.30;22.20;;;;;;;20.42;85.07;99260.33;226766;1271;22597;-74
2023/08/21 05:02:38;;;;;;;24.90;22.30;;;;;;;20.62;84.81;99275.38;226887;1270;22537;-74
2023/08/21 05:07:41;;;;;;;27.10;24.20;;;;;;;20.87;84.63;99281.34;226906;1267;22582;-74
2023/08/21 05:12:43;;;;;;;26.30;23.60;;;;;;;21.14;84.41;99274.27;226746;1270;22538;-74
2023/08/21 05:17:45;;;;;;;26.00;23.30;;;;;;;21.43;84.21;99260.39;226830;1272;22528;-74
2023/08/21 05:22:47;;;;;;;27.80;23.70;;;;;;;21.69;83.81;99277.44;226828;1272;22644;-74
2023/08/21 05:27:49;;;;;;;25.30;22.60;;;;;;;21.94;83.22;99280.79;226926;1272;22534;-74
2023/08/21 05:32:51;;;;;;;26.30;22.90;;;;;;;22.13;82.65;99284.41;226839;1270;22468;-74
2023/08/21 05:37:53;;;;;;;24.90;22.40;;;;;;;22.31;82.10;99280.25;226850;1270;22596;-74
2023/08/21 05:42:55;;;;;;;24.40;22.10;;;;;;;22.47;81.71;99288.55;226939;1272;22558;-74
2023/08/21 05:47:57;;;;;;;23.20;20.80;;;;;;;22.58;81.65;99293.79;226912;1270;25327;-74
2023/08/21 05:53:01;;;;;;;24.70;22.30;;;;;;;22.64;81.15;99307.55;226855;1270;22573;-73
2023/08/21 05:58:03;;;;;;;24.40;21.80;;;;;;;22.63;81.22;99310.23;226685;1266;22609;-73
2023/08/21 06:03:06;;;;;;;23.10;20.70;;;;;;;22.67;81.25;99310.45;226549;1264;25211;-74
2023/08/21 06:08:23;;;;;;;22.00;19.90;;;;;;;22.69;80.84;99323.94;226585;1254;22672;-74
2023/08/21 06:13:25;;;;;;;23.00;20.70;;;;;;;22.68;80.68;99327.86;226528;1266;22551;-73
2023/08/21 06:18:28;;;;;;;22.20;20.10;;;;;;;22.72;80.70;99336.40;226531;1269;22585;-74
2023/08/21 06:23:30;;;;;;;21.50;19.40;;;;;;;22.79;80.56;99339.52;226371;1260;22600;-75
2023/08/21 06:28:32;;;;;;;21.60;19.50;;;;;;;22.89;80.34;99341.45;226492;1267;22534;-79
2023/08/21 06:33:34;;;;;;;17.10;15.30;;;;;;;23.02;80.24;99351.73;226449;1272;26260;-79
2023/08/21 06:38:36;;;;;;;17.30;15.70;;;;;;;23.19;79.76;99352.70;226153;1273;22568;-79
2023/08/21 06:43:39;;;;;;;17.00;15.50;;;;;;;23.32;79.43;99355.82;226408;1273;22541;-80
2023/08/21 06:48:46;;;;;;;15.70;14.40;;;;;;;23.42;79.22;99358.45;226566;1272;22576;-79
2023/08/21 06:53:48;;;;;;;17.30;15.80;;;;;;;23.49;78.70;99365.62;226435;1273;22546;-80
2023/08/21 06:58:50;;;;;;;17.80;16.10;;;;;;;23.51;78.29;99363.98;226575;1272;22533;-80
2023/08/21 07:03:52;;;;;;;18.50;16.70;;;;;;;23.54;78.17;99364.84;226654;1273;22602;-79
2023/08/21 07:08:54;;;;;;;18.40;16.80;;;;;;;23.65;78.13;99372.09;226527;1267;22539;-78
2023/08/21 07:13:57;;;;;;;20.00;17.50;;;;;;;23.76;77.94;99376.54;226495;1273;22653;-79
2023/08/21 07:18:59;;;;;;;20.80;18.80;;;;;;;23.85;77.54;99379.20;226687;1266;22560;-79
2023/08/21 07:24:04;;;;;;;20.90;18.80;;;;;;;23.96;77.31;99378.02;226651;1269;22551;-79
2023/08/21 07:29:06;;;;;;;20.00;18.10;;;;;;;24.15;77.21;99380.51;226714;1267;22536;-78
2023/08/21 07:34:08;;;;;;;20.90;18.70;;;;;;;24.33;76.94;99378.54;226680;1266;22565;-74
2023/08/21 07:39:10;;;;;;;19.20;17.50;;;;;;;24.53;76.56;99379.05;226732;1270;22546;-73
2023/08/21 07:44:12;;;;;;;19.60;18.00;;;;;;;24.67;76.20;99373.38;226582;1270;22672;-74
2023/08/21 07:49:14;;;;;;;20.10;18.20;;;;;;;24.76;75.79;99365.89;226319;1260;22526;-73
2023/08/21 07:54:15;;;;;;;20.80;18.50;;;;;;;24.91;75.57;99370.59;226438;1272;22530;-75
2023/08/21 07:59:19;;;;;;;29.80;21.80;;;;;;;25.14;75.23;99373.35;226540;1273;26028;-73
2023/08/21 08:04:21;;;;;;;28.10;21.00;;;;;;;25.54;75.07;99371.11;226657;1272;22948;-76
2023/08/21 08:09:23;;;;;;;22.80;20.00;;;;;;;25.91;74.28;99369.96;226709;1272;25999;-76
2023/08/21 08:14:25;;;;;;;21.90;19.70;;;;;;;26.17;73.81;99364.10;226806;1272;22542;-75
2023/08/21 08:19:28;;;;;;;19.60;18.00;;;;;;;26.31;73.10;99356.59;226699;1266;22606;-75
2023/08/21 08:24:30;;;;;;;20.70;18.70;;;;;;;26.65;72.88;99366.20;226527;1266;23987;-78
2023/08/21 08:29:31;;;;;;;19.70;17.70;;;;;;;26.88;71.87;99366.42;226657;1273;22574;-78
2023/08/21 08:34:33;;;;;;;20.20;18.30;;;;;;;27.05;71.40;99371.98;226396;1273;25217;-78
2023/08/21 08:39:35;;;;;;;20.70;18.90;;;;;;;27.16;71.13;99376.20;226463;1272;23077;-80
2023/08/21 08:44:40;;;;;;;19.60;17.80;;;;;;;27.29;70.84;99370.39;226366;1273;22565;-79
2023/08/21 08:49:43;;;;;;;25.80;18.90;;;;;;;27.45;70.40;99359.73;226457;1272;22594;-78
2023/08/21 08:54:45;;;;;;;23.40;21.00;;;;;;;27.60;70.21;99361.65;226560;1273;22527;-79
2023/08/21 08:59:47;;;;;;;23.90;21.10;;;;;;;27.67;69.79;99361.91;226560;1272;22904;-79
2023/08/21 09:04:49;;;;;;;24.40;21.40;;;;;;;27.68;69.23;99366.79;226627;1251;22542;-78
2023/08/21 09:09:52;;;;;;;26.50;21.30;;;;;;;27.64;68.80;99364.16;226768;1269;22606;-79
2023/08/21 09:14:55;;;;;;;24.20;21.20;;;;;;;27.67;69.06;99363.11;226779;1272;22521;-79
2023/08/21 09:20:04;;;;;;;22.50;20.30;;;;;;;27.75;69.15;99364.56;226738;1271;22573;-78
2023/08/21 09:25:08;;;;;;;22.10;19.80;;;;;;;27.86;68.54;99358.16;227025;1270;22536;-80
2023/08/21 09:30:16;;;;;;;23.60;19.70;;;;;;;28.11;68.91;99346.42;227289;1272;22562;-79
2023/08/21 09:35:18;;;;;;;22.20;19.90;;;;;;;28.61;68.57;99348.11;227198;1269;22638;-80
2023/08/21 09:40:22;;;;;;;22.60;20.00;;;;;;;28.98;67.20;99346.80;227286;1267;24283;-79
2023/08/21 09:45:26;;;;;;;22.50;20.30;;;;;;;29.10;66.53;99340.80;226722;1266;25420;-79
2023/08/21 09:50:29;;;;;;;21.70;19.60;;;;;;;29.50;66.43;99338.91;226675;1269;24240;-79
2023/08/21 09:55:32;;;;;;;22.20;18.20;;;;;;;29.78;65.59;99338.73;226644;1271;22567;-77
2023/08/21 10:00:39;;;;;;;20.70;18.20;;;;;;;29.89;65.01;99339.25;226692;1270;22548;-78
2023/08/21 10:05:42;;;;;;;19.90;18.30;;;;;;;29.90;64.22;99343.60;226718;1270;22537;-78
2023/08/21 10:10:44;;;;;;;21.10;19.10;;;;;;;29.67;64.05;99346.34;226640;1267;22543;-78
2023/08/21 10:15:46;;;;;;;24.30;22.10;;;;;;;29.43;63.91;99338.01;226551;1269;22543;-77
2023/08/21 10:20:51;;;;;;;24.20;21.90;;;;;;;29.11;64.34;99336.05;226648;1272;22550;-77
2023/08/21 10:26:00;;;;;;;21.30;19.30;;;;;;;28.87;65.04;99335.53;226621;1271;22547;-78
2023/08/21 10:31:27;;;;;;;22.90;20.60;;;;;;;28.66;65.18;99336.84;226518;1270;22759;-78
2023/08/21 10:36:44;;;;;;;23.40;21.20;;;;;;;28.51;65.52;99318.55;226545;1267;22548;-78
2023/08/21 10:41:57;;;;;;;24.00;21.80;;;;;;;28.47;65.97;99312.85;226570;1269;22555;-77
2023/08/21 10:47:18;;;;;;;28.90;22.60;;;;;;;28.55;66.41;99312.35;226676;1269;22556;-78
2023/08/21 10:52:28;;;;;;;23.20;21.20;;;;;;;28.66;66.28;99306.82;226749;1270;22545;-78
2023/08/21 10:57:32;;;;;;;25.70;23.20;;;;;;;28.70;66.17;99308.33;226749;1269;22555;-76
2023/08/21 11:02:35;;;;;;;24.20;22.00;;;;;;;28.68;66.01;99318.04;226835;1272;25383;-77
2023/08/21 11:07:46;;;;;;;24.50;22.40;;;;;;;28.71;66.15;99327.25;226769;1269;22558;-77
2023/08/21 11:12:55;;;;;;;24.30;22.10;;;;;;;28.77;66.14;99328.65;226691;1272;22538;-74
2023/08/21 11:18:00;;;;;;;25.50;23.00;;;;;;;28.83;65.95;99328.35;226585;1272;24895;-75
2023/08/21 11:23:08;;;;;;;25.80;23.40;;;;;;;28.82;65.60;99321.52;226636;1270;26017;-77
2023/08/21 11:28:10;;;;;;;24.10;22.00;;;;;;;28.82;65.57;99317.77;226616;1273;22617;-77
2023/08/21 11:33:13;;;;;;;24.30;22.00;;;;;;;28.78;65.71;99313.18;226734;1272;23023;-77
2023/08/21 11:38:23;;;;;;;24.80;22.60;;;;;;;28.79;65.75;99314.69;226659;1272;25964;-77
2023/08/21 11:43:39;;;;;;;25.30;23.00;;;;;;;28.89;65.67;99307.98;226713;1260;24203;-77
2023/08/21 11:48:42;;;;;;;23.90;21.70;;;;;;;28.87;65.62;99307.30;226526;1263;22534;-75
2023/08/21 11:53:48;;;;;;;23.00;21.00;;;;;;;28.97;65.54;99311.02;226674;1268;22541;-75
2023/08/21 11:58:50;;;;;;;24.70;22.50;;;;;;;28.98;64.96;99317.72;226584;1272;22538;-75
2023/08/21 12:03:56;;;;;;;23.40;21.20;;;;;;;28.91;64.48;99315.64;226662;1272;22530;-75
2023/08/21 12:09:00;;;;;;;22.20;20.30;;;;;;;29.01;64.77;99303.77;226730;1266;22591;-75
2023/08/21 12:14:02;;;;;;;23.10;20.80;;;;;;;29.23;64.75;99301.17;226729;1270;22561;-76
2023/08/21 12:19:04;;;;;;;22.60;20.60;;;;;;;29.36;64.63;99302.75;226640;1266;22626;-76
2023/08/21 12:24:06;;;;;;;21.90;19.90;;;;;;;29.47;63.72;99300.04;226574;1258;22556;-78
2023/08/21 12:29:08;;;;;;;21.90;19.80;;;;;;;29.56;63.87;99298.34;226501;1260;24198;-75
2023/08/21 12:34:10;;;;;;;20.00;18.10;;;;;;;29.69;63.58;99293.46;226594;1272;22544;-77
2023/08/21 12:39:12;;;;;;;21.20;19.30;;;;;;;29.85;63.42;99291.09;226524;1273;22543;-77
2023/08/21 12:44:14;;;;;;;19.70;17.90;;;;;;;30.05;63.19;99280.42;226617;1269;26021;-77
2023/08/21 12:49:16;;;;;;;16.90;15.60;;;;;;;30.11;62.19;99274.20;226792;1269;22538;-77
2023/08/21 12:54:18;;;;;;;18.70;17.30;;;;;;;30.12;61.81;99273.80;226747;1272;22554;-75
2023/08/21 12:59:20;;;;;;;17.70;16.10;;;;;;;30.18;61.90;99263.14;226621;1272;22557;-77
2023/08/21 13:04:22;;;;;;;17.20;15.70;;;;;;;30.30;61.51;99259.92;226651;1270;22531;-76
2023/08/21 13:09:25;;;;;;;14.80;13.50;;;;;;;30.27;61.12;99250.00;226743;1272;22514;-75
2023/08/21 13:14:27;;;;;;;24.40;15.00;;;;;;;30.35;60.76;99244.94;226690;1267;22558;-74
2023/08/21 13:19:33;;;;;;;18.10;16.60;;;;;;;30.49;60.62;99247.41;226773;1272;22537;-75
2023/08/21 13:24:35;;;;;;;14.60;13.40;;;;;;;30.62;60.40;99246.55;226706;1270;22992;-76
2023/08/21 13:29:38;;;;;;;15.30;14.00;;;;;;;30.71;59.88;99243.70;226725;1263;22542;-77
2023/08/21 13:34:40;;;;;;;15.10;13.60;;;;;;;30.70;59.36;99238.50;226574;1263;187103;-77
2023/08/21 13:39:42;;;;;;;17.90;16.10;;;;;;;30.72;59.88;99231.61;226571;1260;22475;-80
2023/08/21 13:44:44;;;;;;;16.80;15.40;;;;;;;30.76;59.59;99225.45;226558;1251;23056;-77
2023/08/21 13:49:46;;;;;;;16.70;15.30;;;;;;;30.77;59.66;99225.38;226712;1265;22552;-76
2023/08/21 13:54:48;;;;;;;15.60;14.30;;;;;;;30.83;59.83;99219.30;226606;1253;22552;-74
2023/08/21 13:59:50;;;;;;;15.00;13.70;;;;;;;30.84;59.43;99214.59;226651;1261;22541;-74
2023/08/21 14:04:52;;;;;;;14.90;13.50;;;;;;;30.83;59.22;99210.51;226521;1270;22673;-75
2023/08/21 14:09:54;;;;;;;15.90;14.40;;;;;;;30.93;59.19;99214.67;226770;1270;22531;-75
2023/08/21 14:14:56;;;;;;;15.50;14.00;;;;;;;30.97;58.69;99205.03;226703;1271;25254;-74
2023/08/21 14:19:58;;;;;;;15.30;14.00;;;;;;;30.97;59.10;99204.21;226790;1273;22543;-74
2023/08/21 14:25:01;;;;;;;15.80;14.60;;;;;;;30.95;58.38;99202.58;226708;1266;22530;-75
2023/08/21 14:30:04;;;;;;;16.20;14.70;;;;;;;30.88;58.60;99196.27;226766;1270;22521;-75
2023/08/21 14:35:07;;;;;;;16.00;14.70;;;;;;;30.88;58.77;99192.86;226713;1270;22568;-73
2023/08/21 14:40:10;;;;;;;16.30;14.90;;;;;;;30.76;58.91;99189.07;226750;1272;22544;-75
2023/08/21 14:45:12;;;;;;;16.20;14.80;;;;;;;30.59;59.25;99189.81;226750;1272;22574;-75
2023/08/21 14:50:14;;;;;;;17.10;15.60;;;;;;;30.51;59.75;99185.77;226857;1269;24209;-75
2023/08/21 14:55:16;;;;;;;17.30;15.70;;;;;;;30.48;59.98;99185.14;226785;1272;22533;-75
2023/08/21 15:00:18;;;;;;;15.90;14.40;;;;;;;30.49;60.19;99183.96;226732;1273;23730;-74
2023/08/21 15:05:25;;;;;;;16.40;15.10;;;;;;;30.48;60.10;99179.06;226740;1266;22536;-75
2023/08/21 15:10:28;;;;;;;16.70;15.30;;;;;;;30.55;59.96;99173.91;226690;1270;22533;-75
2023/08/21 15:15:30;;;;;;;15.90;14.50;;;;;;;30.62;59.98;99172.98;226750;1273;22549;-75
2023/08/21 15:20:32;;;;;;;15.40;14.30;;;;;;;30.65;60.11;99175.44;226731;1273;24224;-75
2023/08/21 15:25:34;;;;;;;16.40;14.90;;;;;;;30.57;60.02;99175.02;226794;1273;22530;-75
2023/08/21 15:30:37;;;;;;;15.40;14.20;;;;;;;30.54;60.10;99176.79;226731;1273;22530;-75
2023/08/21 15:35:42;;;;;;;16.30;14.90;;;;;;;30.54;60.13;99177.66;226710;1270;22570;-75
2023/08/21 15:40:44;;;;;;;15.00;13.90;;;;;;;30.50;60.36;99174.77;226788;1269;25245;-75
2023/08/21 15:45:53;;;;;;;15.80;14.40;;;;;;;30.49;60.47;99170.39;226671;1251;24215;-76
2023/08/21 15:50:55;;;;;;;15.20;13.90;;;;;;;30.48;60.61;99173.61;226886;1272;22560;-76
2023/08/21 15:55:59;;;;;;;14.90;13.50;;;;;;;30.39;60.49;99169.58;226726;1267;23290;-75
2023/08/21 16:01:22;;;;;;;14.30;13.20;;;;;;;30.36;60.64;99170.70;226307;1273;22551;-76
2023/08/21 16:06:24;;;;;;;14.70;13.40;;;;;;;30.31;60.63;99165.99;226687;1273;22633;-75
2023/08/21 16:11:40;;;;;;;13.70;12.70;;;;;;;30.25;60.72;99172.59;226654;1274;22544;-75
2023/08/21 16:16:51;;;;;;;13.70;12.60;;;;;;;30.15;60.69;99165.27;226698;1273;25892;-76
2023/08/21 16:22:03;;;;;;;14.00;13.00;;;;;;;30.15;61.13;99167.56;226691;1256;22529;-75
2023/08/21 16:27:05;;;;;;;13.40;12.30;;;;;;;30.10;61.08;99165.46;226706;1273;22540;-75
2023/08/21 16:32:08;;;;;;;12.70;11.70;;;;;;;30.00;60.96;99165.68;226636;1272;22546;-75
2023/08/21 16:37:13;;;;;;;13.60;12.40;;;;;;;29.91;60.92;99163.17;226663;1272;22576;-75
2023/08/21 16:42:19;;;;;;;12.90;11.80;;;;;;;29.84;61.08;99170.02;226839;1269;22614;-75
2023/08/21 16:47:46;;;;;;;13.50;12.50;;;;;;;29.75;61.00;99171.48;226713;1271;22537;-75
2023/08/21 16:52:56;;;;;;;12.40;11.40;;;;;;;29.61;61.19;99178.14;226662;1275;22521;-75
2023/08/21 16:58:07;;;;;;;12.00;11.10;;;;;;;29.39;61.39;99180.62;226625;1270;24265;-75
2023/08/21 17:03:09;;;;;;;12.50;11.40;;;;;;;29.15;62.09;99187.09;226672;1276;22534;-75
2023/08/21 17:08:11;;;;;;;12.10;11.10;;;;;;;29.02;62.66;99184.45;226612;1274;23424;-75
2023/08/21 17:13:13;;;;;;;12.90;11.90;;;;;;;28.84;62.96;99186.16;226707;1274;22537;-76
2023/08/21 17:18:16;;;;;;;11.90;10.90;;;;;;;28.59;63.33;99187.14;226712;1276;22483;-75
2023/08/21 17:23:18;;;;;;;12.60;11.50;;;;;;;28.34;63.90;99195.91;226672;1275;22540;-75
2023/08/21 17:28:20;;;;;;;12.40;11.40;;;;;;;28.11;64.46;99200.50;226744;1273;25318;-75
2023/08/21 17:33:22;;;;;;;12.70;11.60;;;;;;;27.88;64.78;99202.48;226688;1272;22539;-75
2023/08/21 17:38:24;;;;;;;12.60;11.50;;;;;;;27.65;65.35;99203.08;226739;1272;22580;-76
2023/08/21 17:43:26;;;;;;;13.10;11.90;;;;;;;27.43;66.08;99203.79;226690;1273;22560;-75
2023/08/21 17:48:28;;;;;;;13.10;11.90;;;;;;;27.21;66.52;99205.21;226713;1272;22556;-75
2023/08/21 17:53:30;;;;;;;13.50;12.40;;;;;;;26.99;67.14;99204.27;226732;1273;22540;-76
2023/08/21 17:58:32;;;;;;;13.20;12.00;;;;;;;26.77;67.87;99197.59;226677;1271;22636;-75
2023/08/21 18:03:34;;;;;;;13.50;12.30;;;;;;;26.58;68.33;99201.32;226743;1273;22524;-75
2023/08/21 18:08:36;;;;;;;14.10;12.80;;;;;;;26.39;68.85;99205.57;226705;1271;24333;-75
2023/08/21 18:13:38;;;;;;;14.90;13.70;;;;;;;26.22;69.22;99206.30;226737;1272;22534;-75
2023/08/21 18:18:42;;;;;;;15.70;14.20;;;;;;;26.07;69.60;99195.86;226652;1273;22575;-74
2023/08/21 18:23:44;;;;;;;14.40;13.30;;;;;;;25.90;69.98;99195.95;226709;1272;22537;-75
2023/08/21 18:28:46;;;;;;;15.80;14.40;;;;;;;25.76;70.46;99209.77;226848;1272;22544;-75
2023/08/21 18:33:48;;;;;;;13.90;12.60;;;;;;;25.60;71.08;99212.07;226716;1269;22542;-75
2023/08/21 18:38:50;;;;;;;14.50;13.30;;;;;;;25.44;71.54;99213.35;226686;1272;22694;-75
2023/08/21 18:43:52;;;;;;;15.40;14.00;;;;;;;25.29;72.08;99218.84;226704;1272;22534;-75
2023/08/21 18:48:55;;;;;;;14.20;13.00;;;;;;;25.16;72.42;99229.36;226702;1273;22747;-75
2023/08/21 18:53:57;;;;;;;14.50;13.20;;;;;;;25.05;72.79;99241.48;226823;1272;27225;-75
2023/08/21 18:59:01;;;;;;;14.10;12.90;;;;;;;24.97;73.19;99246.94;226699;1272;22562;-75
2023/08/21 19:04:03;;;;;;;13.90;12.70;;;;;;;24.87;73.40;99254.54;226672;1272;24601;-74
2023/08/21 19:09:05;;;;;;;13.80;12.60;;;;;;;24.77;73.76;99254.85;226744;1272;22995;-74
2023/08/21 19:14:07;;;;;;;14.20;13.00;;;;;;;24.64;74.06;99254.23;226765;1271;22577;-75
2023/08/21 19:19:09;;;;;;;14.00;12.70;;;;;;;24.50;74.27;99261.61;226767;1273;22640;-74
2023/08/21 19:24:10;;;;;;;13.70;12.40;;;;;;;24.37;74.52;99266.55;226751;1273;22531;-75
2023/08/21 19:29:13;;;;;;;14.00;12.70;;;;;;;24.24;74.87;99273.46;226699;1272;22558;-75
2023/08/21 19:34:15;;;;;;;14.10;12.70;;;;;;;24.14;75.21;99282.66;226659;1273;22537;-75
2023/08/21 19:39:17;;;;;;;14.10;12.80;;;;;;;24.06;75.27;99287.90;226761;1273;22564;-75
2023/08/21 19:44:42;;;;;;;15.20;13.30;;;;;;;23.95;75.59;99294.48;226819;1273;22530;-75
2023/08/21 19:49:46;;;;;;;16.10;14.50;;;;;;;23.84;75.74;99296.60;226733;1273;22722;-75
2023/08/21 19:54:48;;;;;;;16.90;15.10;;;;;;;23.75;76.05;99292.98;226729;1272;25475;-75
2023/08/21 19:59:50;;;;;;;19.50;14.90;;;;;;;23.65;75.95;99291.89;226709;1272;22890;-76
2023/08/21 20:04:52;;;;;;;18.50;14.70;;;;;;;23.57;75.79;99291.32;226807;1273;22537;-75
2023/08/21 20:09:55;;;;;;;21.70;14.60;;;;;;;23.48;75.75;99291.77;226714;1271;25534;-74
2023/08/21 20:14:57;;;;;;;23.10;15.20;;;;;;;23.41;75.77;99292.20;226779;1273;22573;-75
2023/08/21 20:20:06;;;;;;;20.80;14.70;;;;;;;23.34;75.73;99295.95;226705;1274;22541;-75
2023/08/21 20:25:08;;;;;;;18.10;13.80;;;;;;;23.26;75.96;99298.25;226661;1272;22600;-76
2023/08/21 20:30:11;;;;;;;14.70;13.10;;;;;;;23.19;76.11;99299.14;226755;1271;22609;-76
2023/08/21 20:35:13;;;;;;;15.10;13.00;;;;;;;23.11;76.18;99304.05;226736;1272;22534;-73
2023/08/21 20:40:16;;;;;;;14.80;12.70;;;;;;;23.02;76.38;99298.73;226685;1272;22541;-74
2023/08/21 20:45:18;;;;;;;22.50;19.80;;;;;;;22.94;76.56;99303.73;226726;1272;25255;-74
2023/08/21 20:50:20;;;;;;;15.90;14.20;;;;;;;22.86;76.58;99301.86;226704;1273;22553;-75
2023/08/21 20:55:22;;;;;;;17.70;14.60;;;;;;;22.78;76.78;99297.47;226703;1272;22547;-74
2023/08/21 21:00:24;;;;;;;14.70;13.20;;;;;;;22.70;77.03;99298.07;226687;1269;22666;-75
2023/08/21 21:05:26;;;;;;;15.60;13.30;;;;;;;22.61;77.22;99293.19;226793;1272;22541;-75
2023/08/21 21:10:34;;;;;;;14.10;12.60;;;;;;;22.53;77.37;99291.86;226784;1273;22541;-73
2023/08/21 21:15:36;;;;;;;14.50;13.10;;;;;;;22.42;77.46;99292.71;226776;1274;22537;-76
2023/08/21 21:20:38;;;;;;;16.40;13.30;;;;;;;22.32;77.65;99297.81;226672;1273;22529;-74
2023/08/21 21:25:40;;;;;;;16.20;14.40;;;;;;;22.24;77.86;99293.30;226701;1274;22533;-74
2023/08/21 21:30:42;;;;;;;16.00;14.30;;;;;;;22.15;78.11;99298.75;226622;1266;22597;-75
2023/08/21 21:35:46;;;;;;;15.50;13.90;;;;;;;22.07;78.22;99296.60;226700;1251;22541;-74
2023/08/21 21:40:54;;;;;;;18.30;15.20;;;;;;;21.99;78.36;99300.46;226709;1274;22531;-75
2023/08/21 21:46:04;;;;;;;15.00;13.40;;;;;;;21.94;78.65;99298.71;226781;1274;22624;-75
2023/08/21 21:51:06;;;;;;;16.30;14.60;;;;;;;21.91;78.72;99301.27;226741;1273;25296;-74
2023/08/21 21:56:08;;;;;;;15.30;13.80;;;;;;;21.89;78.87;99304.77;226681;1273;23008;-74
2023/08/21 22:01:10;;;;;;;16.50;13.80;;;;;;;21.87;79.00;99307.21;226720;1274;22577;-74
2023/08/21 22:06:12;;;;;;;15.50;14.00;;;;;;;21.86;79.09;99314.20;226671;1270;22542;-75
2023/08/21 22:11:17;;;;;;;17.00;15.20;;;;;;;21.85;79.07;99318.77;226667;1274;22541;-75
2023/08/21 22:16:19;;;;;;;23.20;19.30;;;;;;;21.85;79.06;99318.06;226613;1273;26031;-74
2023/08/21 22:21:21;;;;;;;24.00;20.30;;;;;;;21.86;79.12;99322.50;226598;1274;22536;-74
2023/08/21 22:26:23;;;;;;;24.40;21.50;;;;;;;21.90;79.17;99318.77;226800;1272;22607;-73
2023/08/21 22:31:25;;;;;;;21.70;18.60;;;;;;;21.94;79.17;99323.48;226859;1274;22530;-74
2023/08/21 22:36:42;;;;;;;19.90;17.10;;;;;;;21.98;79.18;99318.79;226694;1273;22551;-74
2023/08/21 22:41:44;;;;;;;18.10;14.80;;;;;;;22.03;79.17;99313.06;226627;1274;22534;-74
2023/08/21 22:46:46;;;;;;;14.60;13.10;;;;;;;22.05;79.04;99316.48;226707;1274;22550;-74
2023/08/21 22:51:51;;;;;;;15.60;13.00;;;;;;;22.05;78.99;99308.30;226767;1272;22547;-75
2023/08/21 22:56:53;;;;;;;14.20;12.70;;;;;;;22.01;79.02;99295.92;226778;1273;22538;-75
2023/08/21 23:01:55;;;;;;;14.40;13.10;;;;;;;21.97;78.99;99294.61;226664;1273;22671;-75